Time;durP1;ratioP1;P1;durP2;ratioP2;P2;SDS_P1;SDS_P2;PMS_P1;PMS_P2;Temp;Humidity;BMP_temperature;BMP_pressure;BME280_temperature;BME280_humidity;BME280_pressure;Samples;Min_cycle;Max_cycle;Signal;HPM_P1;HPM_P2
2023/03/02 00:20:56;;;;;;;8.52;4.43;;;;;;;6.21;73.87;95475.91;6250262;22;1712570;-82
2023/03/02 00:23:22;;;;;;;6.97;4.20;;;;;;;6.38;73.09;95458.28;6319826;22;20019;-81
2023/03/02 00:25:47;;;;;;;8.65;4.45;;;;;;;6.41;73.10;95460.44;6293425;22;19991;-81
2023/03/02 00:28:13;;;;;;;7.35;4.05;;;;;;;6.32;72.62;95448.72;6293562;22;20011;-82
2023/03/02 00:30:40;;;;;;;7.53;4.28;;;;;;;5.90;72.22;95379.84;6293939;22;20033;-82
2023/03/02 00:33:06;;;;;;;5.85;3.90;;;;;;;6.62;72.85;95487.09;6293308;22;20052;-82
2023/03/02 00:35:39;;;;;;;6.18;4.90;;;;;;;6.93;72.86;95534.78;6293096;22;20015;-82
2023/03/02 00:38:06;;;;;;;8.93;6.55;;;;;;;6.91;72.80;95542.13;6293642;22;20006;-81
2023/03/02 00:40:32;;;;;;;10.32;7.63;;;;;;;6.81;73.02;95541.97;6291763;22;20007;-83
2023/03/02 00:42:58;;;;;;;8.38;6.85;;;;;;;6.38;72.92;95444.31;6321042;22;19999;-82
2023/03/02 00:45:24;;;;;;;9.63;6.72;;;;;;;6.49;72.59;95454.75;6321677;22;20014;-82
2023/03/02 00:47:50;;;;;;;12.10;8.45;;;;;;;5.93;72.54;95400.44;6296034;22;20003;-81
2023/03/02 00:50:15;;;;;;;11.65;7.55;;;;;;;6.53;73.48;95489.34;6292626;22;20454;-82
2023/03/02 00:52:41;;;;;;;23.88;16.35;;;;;;;6.13;73.31;95434.97;6319604;22;20048;-81
2023/03/02 00:55:08;;;;;;;40.65;27.77;;;;;;;6.54;73.05;95490.94;6320664;22;20129;-82
2023/03/02 00:57:33;;;;;;;45.10;28.88;;;;;;;6.57;72.70;95482.53;6300125;22;20095;-82
2023/03/02 00:59:59;;;;;;;43.35;28.38;;;;;;;6.39;72.73;95465.16;6327589;22;20003;-84
2023/03/02 01:02:24;;;;;;;41.55;24.83;;;;;;;6.26;73.13;95433.84;6313624;22;20056;-84
2023/03/02 01:04:52;;;;;;;40.92;22.00;;;;;;;6.86;73.13;95523.59;6310405;22;20025;-85
2023/03/02 01:07:23;;;;;;;35.70;17.52;;;;;;;6.84;72.35;95509.06;6311287;22;20496;-85
2023/03/02 01:09:49;;;;;;;25.52;12.98;;;;;;;6.73;72.58;95491.47;6283974;22;20003;-85
2023/03/02 01:12:14;;;;;;;24.60;11.02;;;;;;;6.39;71.89;95424.84;6284359;22;20014;-85
2023/03/02 01:14:44;;;;;;;13.32;6.35;;;;;;;6.34;72.93;95441.34;6283748;22;20454;-85
2023/03/02 01:17:10;;;;;;;7.45;4.80;;;;;;;6.68;72.72;95481.66;6284698;22;20404;-85
2023/03/02 01:19:36;;;;;;;4.40;2.90;;;;;;;6.02;72.80;95414.81;6307696;22;20637;-85
2023/03/02 01:22:01;;;;;;;5.80;2.70;;;;;;;6.04;74.06;95441.66;6277244;22;20011;-85
2023/03/02 01:24:27;;;;;;;4.18;2.88;;;;;;;6.42;74.75;95506.00;6276930;22;20010;-85
2023/03/02 01:26:53;;;;;;;4.90;3.00;;;;;;;6.38;74.76;95502.28;6304940;22;20007;-85
2023/03/02 01:29:18;;;;;;;5.65;2.72;;;;;;;6.12;73.94;95446.53;6276500;22;20007;-85
2023/03/02 01:31:44;;;;;;;3.78;2.35;;;;;;;5.87;73.86;95411.09;6277038;22;20007;-84
2023/03/02 01:34:10;;;;;;;5.40;2.20;;;;;;;6.22;73.86;95450.38;6304224;22;19999;-85
2023/03/02 01:36:35;;;;;;;4.03;2.75;;;;;;;6.63;73.40;95505.31;6277008;22;20014;-85
2023/03/02 01:39:01;;;;;;;5.30;2.85;;;;;;;6.49;73.33;95470.56;6303996;22;20400;-85
2023/03/02 01:41:26;;;;;;;5.28;3.05;;;;;;;6.40;73.17;95453.59;6304832;22;20080;-85
2023/03/02 01:43:52;;;;;;;3.85;2.40;;;;;;;6.64;73.59;95495.59;6276939;22;19999;-85
2023/03/02 01:46:25;;;;;;;4.40;2.33;;;;;;;6.59;74.04;95496.28;6276898;22;20060;-85
2023/03/02 01:48:57;;;;;;;4.18;2.85;;;;;;;6.68;73.33;95488.78;6304805;22;20003;-85
2023/03/02 01:51:25;;;;;;;3.17;2.20;;;;;;;6.65;73.68;95476.88;6304354;22;20440;-85
2023/03/02 01:53:55;;;;;;;3.17;2.30;;;;;;;6.75;73.35;95482.28;6276493;22;20010;-85
2023/03/02 01:56:24;;;;;;;4.10;2.50;;;;;;;6.77;72.99;95490.78;6304763;22;20049;-85
2023/03/02 01:58:53;;;;;;;2.33;2.10;;;;;;;6.28;72.09;95410.72;6276734;22;20007;-86
2023/03/02 02:01:18;;;;;;;3.80;2.78;;;;;;;6.84;72.12;95486.13;6304586;22;20008;-84
2023/03/02 02:03:48;;;;;;;4.78;2.40;;;;;;;6.07;72.07;95356.94;6276389;22;20401;-85
2023/03/02 02:06:23;;;;;;;3.53;2.30;;;;;;;6.47;72.38;95409.44;6276768;22;20015;-85
2023/03/02 02:08:50;;;;;;;2.53;2.13;;;;;;;6.44;72.22;95415.19;6276703;22;20011;-85
2023/03/02 02:11:15;;;;;;;5.63;2.25;;;;;;;6.70;71.77;95447.97;6304124;22;20014;-85
2023/03/02 02:13:42;;;;;;;2.95;2.13;;;;;;;6.62;73.14;95468.66;6276933;22;20003;-85
2023/03/02 02:16:08;;;;;;;5.93;2.63;;;;;;;6.49;73.02;95448.69;6276608;22;20060;-85
2023/03/02 02:18:36;;;;;;;2.78;1.85;;;;;;;6.33;73.81;95445.03;6282171;22;20011;-84
2023/03/02 02:21:03;;;;;;;2.55;2.08;;;;;;;6.37;73.77;95459.31;6279279;22;20460;-84
2023/03/02 02:23:50;;;;;;;3.03;2.13;;;;;;;6.36;74.80;95483.28;6307307;22;20008;-84
2023/03/02 02:26:46;;;;;;;3.55;2.20;;;;;;;6.53;74.41;95478.81;6307348;22;20509;-84
2023/03/02 02:29:21;;;;;;;4.63;2.70;;;;;;;6.27;73.90;95450.47;6301182;22;20011;-84
2023/03/02 02:32:05;;;;;;;3.85;2.17;;;;;;;6.53;74.47;95484.88;6306249;22;20072;-84
2023/03/02 02:34:39;;;;;;;3.70;1.80;;;;;;;6.07;73.29;95416.72;6306664;22;20002;-84
2023/03/02 02:37:10;;;;;;;5.45;2.55;;;;;;;6.44;73.21;95461.78;6279828;22;20007;-84
2023/03/02 02:39:40;;;;;;;6.00;2.45;;;;;;;6.14;74.30;95438.41;6279378;22;20025;-84
2023/03/02 02:42:12;;;;;;;4.50;2.45;;;;;;;6.39;74.37;95483.59;6279593;22;20007;-84
2023/03/02 02:44:38;;;;;;;4.55;2.75;;;;;;;6.50;73.68;95471.38;6279587;22;20011;-83
2023/03/02 02:47:13;;;;;;;5.40;2.92;;;;;;;6.24;74.42;95462.28;6279260;22;20452;-83
2023/03/02 02:49:40;;;;;;;4.85;2.88;;;;;;;6.29;73.86;95454.47;6279171;22;20012;-83
2023/03/02 02:52:06;;;;;;;4.57;2.60;;;;;;;5.99;73.67;95406.56;6306779;22;19999;-83
2023/03/02 02:54:33;;;;;;;7.35;3.17;;;;;;;6.16;74.06;95446.88;6287800;22;20442;-82
2023/03/02 02:57:01;;;;;;;6.00;2.92;;;;;;;6.06;73.06;95423.81;6316955;22;20066;-81
2023/03/02 02:59:41;;;;;;;3.97;2.30;;;;;;;6.18;73.64;95442.16;6289909;22;20354;-83
2023/03/02 03:02:19;;;;;;;5.93;2.40;;;;;;;6.35;73.88;95466.66;6290533;22;20010;-81
2023/03/02 03:04:44;;;;;;;3.88;2.40;;;;;;;6.08;74.22;95436.75;6311984;22;20030;-82
2023/03/02 03:07:17;;;;;;;5.60;3.40;;;;;;;6.00;73.92;95410.81;6285497;22;19999;-82
2023/03/02 03:09:42;;;;;;;5.65;2.70;;;;;;;6.24;73.78;95435.94;6288088;22;20026;-82
2023/03/02 03:12:16;;;;;;;5.22;2.67;;;;;;;6.22;73.58;95445.91;6290469;22;19999;-82
2023/03/02 03:14:42;;;;;;;5.28;2.67;;;;;;;5.25;73.05;95285.63;6288362;22;20495;-82
2023/03/02 03:17:12;;;;;;;3.85;2.30;;;;;;;6.56;73.15;95465.16;6311920;22;19999;-81
2023/03/02 03:19:43;;;;;;;5.80;2.25;;;;;;;6.63;72.81;95463.16;6284342;22;20022;-82
2023/03/02 03:22:11;;;;;;;4.07;2.55;;;;;;;5.95;72.72;95350.19;6312278;22;20020;-81
2023/03/02 03:24:37;;;;;;;3.10;2.17;;;;;;;6.37;72.65;95417.19;6284605;22;20011;-82
2023/03/02 03:27:04;;;;;;;3.08;2.05;;;;;;;6.69;73.02;95464.81;6311872;22;20086;-81
2023/03/02 03:29:30;;;;;;;3.90;2.33;;;;;;;6.52;72.78;95450.84;6283030;22;20034;-82
2023/03/02 03:31:57;;;;;;;6.97;2.30;;;;;;;6.67;72.50;95463.47;6312015;22;20010;-81
2023/03/02 03:34:23;;;;;;;2.88;2.10;;;;;;;6.66;72.58;95469.75;6284227;22;20027;-82
2023/03/02 03:36:49;;;;;;;6.40;1.90;;;;;;;5.95;72.27;95358.84;6284950;22;20003;-82
2023/03/02 03:39:16;;;;;;;4.68;3.08;;;;;;;6.00;72.47;95379.22;6311774;22;20082;-82
2023/03/02 03:41:41;;;;;;;4.65;2.00;;;;;;;6.12;72.95;95393.09;6284115;22;20007;-82
2023/03/02 03:44:07;;;;;;;2.78;1.70;;;;;;;5.97;73.27;95390.22;6284172;22;20019;-81
2023/03/02 03:46:33;;;;;;;4.28;2.15;;;;;;;6.13;72.87;95411.28;6284434;22;20014;-81
2023/03/02 03:48:59;;;;;;;4.20;2.25;;;;;;;6.30;72.49;95434.97;6317641;22;20017;-81
2023/03/02 03:51:25;;;;;;;3.45;2.53;;;;;;;6.53;73.96;95469.06;6290043;22;20011;-82
2023/03/02 03:53:58;;;;;;;3.28;1.90;;;;;;;5.27;74.64;95280.91;6315555;22;20086;-82
2023/03/02 03:56:29;;;;;;;3.53;2.10;;;;;;;6.04;74.93;95417.19;6282826;22;20003;-82
2023/03/02 03:59:07;;;;;;;2.40;1.90;;;;;;;6.52;75.21;95469.31;6312640;22;19999;-82
2023/03/02 04:01:36;;;;;;;2.58;1.65;;;;;;;6.56;74.27;95468.56;6284702;22;20090;-83
2023/03/02 04:04:04;;;;;;;2.97;2.00;;;;;;;5.54;74.99;95335.53;6284094;22;20045;-82
2023/03/02 04:06:30;;;;;;;2.22;1.80;;;;;;;6.09;75.72;95472.56;6284319;22;20018;-82
2023/03/02 04:08:55;;;;;;;2.22;1.40;;;;;;;5.31;76.62;95384.59;6283673;22;20007;-82
2023/03/02 04:11:21;;;;;;;2.42;1.58;;;;;;;6.07;76.29;95464.09;6311476;22;20059;-82
2023/03/02 04:13:47;;;;;;;2.95;2.00;;;;;;;5.76;76.65;95392.50;6284190;22;20003;-82
2023/03/02 04:16:13;;;;;;;3.42;1.80;;;;;;;6.09;77.00;95462.03;6283476;22;20007;-82
2023/03/02 04:18:39;;;;;;;2.67;1.58;;;;;;;6.08;75.84;95436.75;6284078;22;20086;-82
2023/03/02 04:21:04;;;;;;;2.50;1.90;;;;;;;5.77;76.20;95388.03;6311428;22;20019;-82
2023/03/02 04:23:30;;;;;;;3.22;2.20;;;;;;;5.80;76.59;95403.31;6312209;22;20007;-82
2023/03/02 04:25:55;;;;;;;4.28;2.38;;;;;;;6.12;76.02;95451.00;6283803;22;20006;-82
2023/03/02 04:28:20;;;;;;;5.90;2.97;;;;;;;5.80;76.55;95396.22;6284759;22;20007;-82
2023/03/02 04:30:46;;;;;;;5.05;3.17;;;;;;;5.86;76.11;95393.69;6284017;22;20003;-81
2023/03/02 04:33:11;;;;;;;4.72;2.83;;;;;;;6.16;76.35;95444.25;6284371;22;20025;-82
2023/03/02 04:35:37;;;;;;;4.47;2.90;;;;;;;5.40;76.02;95319.25;6285382;22;20009;-82
2023/03/02 04:38:02;;;;;;;4.65;2.60;;;;;;;5.96;76.66;95399.94;6312485;22;20077;-82
2023/03/02 04:40:28;;;;;;;5.32;3.95;;;;;;;6.10;76.66;95440.72;6311732;22;20418;-82
2023/03/02 04:42:53;;;;;;;4.93;3.03;;;;;;;5.38;77.14;95360.78;6284019;22;20003;-81
2023/03/02 04:45:19;;;;;;;4.97;3.42;;;;;;;5.91;76.00;95426.19;6311754;22;20007;-82
2023/03/02 04:47:44;;;;;;;3.67;2.70;;;;;;;5.49;76.98;95407.28;6312036;22;20577;-82
2023/03/02 04:50:14;;;;;;;4.18;2.80;;;;;;;5.23;76.06;95358.69;6311451;22;20131;-82
2023/03/02 04:52:39;;;;;;;3.35;2.60;;;;;;;5.35;76.95;95374.38;6311719;22;20007;-82
2023/03/02 04:55:06;;;;;;;3.20;2.72;;;;;;;5.58;77.28;95392.69;6281904;22;20014;-81
2023/03/02 04:57:32;;;;;;;4.20;2.40;;;;;;;5.50;76.68;95387.81;6284379;22;20003;-82
2023/03/02 04:59:57;;;;;;;3.88;2.83;;;;;;;5.94;76.76;95454.69;6314067;22;20342;-82
2023/03/02 05:02:23;;;;;;;4.55;2.72;;;;;;;5.43;76.85;95374.81;6285914;22;20152;-82
2023/03/02 05:04:49;;;;;;;5.22;3.17;;;;;;;5.87;77.16;95447.94;6282633;22;20068;-81
2023/03/02 05:07:14;;;;;;;3.85;2.95;;;;;;;6.08;78.11;95478.88;6283909;22;20440;-81
2023/03/02 05:09:39;;;;;;;4.85;3.30;;;;;;;5.75;77.45;95400.63;6282755;22;20011;-82
2023/03/02 05:12:05;;;;;;;4.25;3.20;;;;;;;6.06;77.78;95476.47;6283431;22;19999;-81
2023/03/02 05:14:31;;;;;;;7.32;3.58;;;;;;;6.08;78.42;95460.44;6285064;22;20015;-82
2023/03/02 05:16:57;;;;;;;4.93;3.20;;;;;;;5.78;77.78;95418.56;6311267;22;20095;-83
2023/03/02 05:19:23;;;;;;;5.50;3.47;;;;;;;5.91;78.14;95439.34;6280446;22;20362;-83
2023/03/02 05:21:48;;;;;;;8.95;3.80;;;;;;;5.84;77.76;95420.25;6277924;22;20350;-82
2023/03/02 05:24:16;;;;;;;3.97;3.15;;;;;;;5.81;77.17;95410.19;6275163;22;20011;-82
2023/03/02 05:26:42;;;;;;;6.07;3.85;;;;;;;6.04;77.31;95448.78;6277758;22;20003;-83
2023/03/02 05:29:07;;;;;;;7.70;4.80;;;;;;;5.38;77.27;95356.31;6274811;22;20645;-82
2023/03/02 05:31:39;;;;;;;6.63;4.60;;;;;;;6.22;77.93;95493.31;6275546;22;20122;-83
2023/03/02 05:34:05;;;;;;;;;;;;;;;6.27;77.76;95488.13;6274290;22;20015;-83
2023/03/02 05:36:31;;;;;;;8.27;4.80;;;;;;;4.96;78.19;95328.72;6303223;22;19915;-82
2023/03/02 05:38:57;;;;;;;5.63;4.25;;;;;;;5.34;78.54;95385.97;6303530;22;20022;-83
2023/03/02 05:41:22;;;;;;;5.43;3.90;;;;;;;4.24;77.59;95182.13;6277657;22;20068;-82
2023/03/02 05:43:48;;;;;;;6.35;4.75;;;;;;;5.82;77.40;95441.53;6304620;22;20355;-82
2023/03/02 05:46:16;;;;;;;7.25;5.13;;;;;;;6.04;78.06;95478.53;6299769;22;20137;-82
2023/03/02 05:48:41;;;;;;;7.85;4.63;;;;;;;6.27;78.21;95492.59;6270099;22;20011;-83
2023/03/02 05:51:07;;;;;;;6.28;4.85;;;;;;;5.77;77.40;95414.34;6301576;22;20558;-83
2023/03/02 05:53:32;;;;;;;5.45;4.57;;;;;;;5.69;77.43;95378.69;6274880;22;20011;-83
2023/03/02 05:56:00;;;;;;;5.95;4.32;;;;;;;5.16;76.82;95313.31;6274781;22;20438;-83
2023/03/02 05:58:26;;;;;;;8.85;4.90;;;;;;;3.35;75.84;94999.13;6299164;22;20007;-84
2023/03/02 06:00:52;;;;;;;7.05;4.97;;;;;;;3.06;76.02;94962.38;6267316;22;20015;-85
2023/03/02 06:03:18;;;;;;;6.47;4.65;;;;;;;5.23;76.26;95294.78;6269358;22;20020;-86
2023/03/02 06:05:43;;;;;;;6.68;4.63;;;;;;;5.35;76.08;95330.47;6270978;22;20034;-84
2023/03/02 06:08:12;;;;;;;5.15;4.13;;;;;;;3.06;75.66;94967.59;6267830;22;20070;-86
2023/03/02 06:10:37;;;;;;;5.57;4.30;;;;;;;4.70;75.48;95203.97;6265757;22;20117;-87
2023/03/02 06:13:03;;;;;;;5.63;4.22;;;;;;;3.83;76.01;95049.31;6272088;22;20011;-85
2023/03/02 06:15:39;;;;;;;4.15;3.45;;;;;;;4.88;75.07;95256.28;6270815;22;20049;-86
2023/03/02 06:18:05;;;;;;;8.18;3.63;;;;;;;5.36;74.81;95289.19;6261369;22;20670;-83
2023/03/02 06:20:33;;;;;;;4.68;3.63;;;;;;;3.09;74.65;94946.19;6244856;22;20020;-86
2023/03/02 06:22:59;;;;;;;5.15;4.07;;;;;;;6.27;75.59;95455.72;6235089;22;19999;-84
2023/03/02 06:25:34;;;;;;;8.80;4.60;;;;;;;4.53;75.12;95177.66;6233908;22;20085;-85
2023/03/02 06:28:00;;;;;;;7.38;4.68;;;;;;;5.66;75.30;95344.94;6236226;22;20014;-85
2023/03/02 06:30:26;;;;;;;6.75;5.45;;;;;;;5.55;74.61;95309.00;6236543;22;20771;-84
2023/03/02 06:32:52;;;;;;;9.60;5.85;;;;;;;3.21;74.66;94968.94;6239186;22;20007;-86
2023/03/02 06:35:18;;;;;;;12.43;6.70;;;;;;;5.69;75.29;95320.00;6237567;22;20360;-85
2023/03/02 06:37:43;;;;;;;9.55;6.80;;;;;;;3.16;75.82;94974.09;6264935;22;20447;-85
2023/03/02 06:40:12;;;;;;;11.00;6.35;;;;;;;5.09;75.22;95254.84;6237103;22;20415;-86
2023/03/02 06:42:38;;;;;;;8.40;5.25;;;;;;;4.92;75.31;95249.56;6238786;22;20014;-85
2023/03/02 06:45:05;;;;;;;12.75;6.88;;;;;;;6.36;75.41;95494.59;6238330;22;20065;-87
2023/03/02 06:47:32;;;;;;;8.13;5.88;;;;;;;3.17;75.07;94957.34;6261268;22;20046;-84
2023/03/02 06:49:58;;;;;;;7.00;4.85;;;;;;;5.63;74.68;95340.19;6260854;22;20008;-85
2023/03/02 06:52:23;;;;;;;7.70;5.38;;;;;;;6.56;74.71;95471.19;6226511;22;20345;-85
2023/03/02 06:54:52;;;;;;;10.57;5.75;;;;;;;6.90;74.74;95524.69;6229867;22;20054;-84
2023/03/02 06:57:18;;;;;;;8.45;5.88;;;;;;;6.34;74.60;95441.34;6237402;22;20018;-84
2023/03/02 06:59:43;;;;;;;10.20;6.72;;;;;;;5.30;74.70;95267.28;6262333;22;20012;-83
2023/03/02 07:02:11;;;;;;;12.30;7.22;;;;;;;6.59;75.13;95472.56;6228919;22;20015;-83
2023/03/02 07:04:37;;;;;;;15.13;7.60;;;;;;;7.09;74.63;95521.81;6240028;22;20015;-85
2023/03/02 07:07:03;;;;;;;12.15;7.10;;;;;;;6.22;74.61;95393.25;6265957;22;20046;-83
2023/03/02 07:09:31;;;;;;;12.45;8.65;;;;;;;5.34;75.05;95249.22;6237851;22;20075;-86
2023/03/02 07:11:59;;;;;;;13.13;8.48;;;;;;;3.31;74.37;94969.94;6264321;22;20347;-85
2023/03/02 07:14:24;;;;;;;12.20;8.00;;;;;;;3.39;75.33;94966.94;6235025;22;20024;-86
2023/03/02 07:16:50;;;;;;;12.00;7.45;;;;;;;6.22;75.87;95447.75;6265590;22;20530;-85
2023/03/02 07:19:16;;;;;;;12.95;6.97;;;;;;;4.78;75.48;95223.81;6240661;22;20021;-84
2023/03/02 07:21:43;;;;;;;11.25;6.78;;;;;;;4.80;76.24;95205.97;6267501;22;20049;-83
2023/03/02 07:24:09;;;;;;;10.45;6.35;;;;;;;2.89;75.99;94892.63;6266796;22;20007;-83
2023/03/02 07:26:34;;;;;;;10.55;6.47;;;;;;;5.63;76.20;95302.53;6269756;22;20014;-83
2023/03/02 07:29:02;;;;;;;12.57;6.85;;;;;;;4.08;76.30;95063.94;6265432;22;20007;-83
2023/03/02 07:31:28;;;;;;;10.13;6.32;;;;;;;4.58;76.40;95142.78;6268961;22;20674;-84
2023/03/02 07:33:53;;;;;;;9.43;6.03;;;;;;;6.45;75.65;95422.03;6270564;22;20028;-85
2023/03/02 07:36:19;;;;;;;11.38;5.90;;;;;;;4.39;75.69;95118.59;6266129;22;20018;-85
2023/03/02 07:38:45;;;;;;;10.77;5.20;;;;;;;3.53;74.73;94962.22;6261645;22;20012;-87
2023/03/02 07:41:15;;;;;;;8.18;5.82;;;;;;;6.65;75.95;95463.69;6291977;22;20007;-86
2023/03/02 07:43:41;;;;;;;9.07;5.25;;;;;;;3.67;74.84;95000.25;6265702;22;20003;-88
2023/03/02 07:46:07;;;;;;;7.43;4.95;;;;;;;3.42;75.36;94970.94;6266426;22;20003;-86
2023/03/02 07:48:32;;;;;;;10.13;4.88;;;;;;;4.58;76.55;95153.28;6290765;22;20014;-86
2023/03/02 07:50:59;;;;;;;6.97;4.55;;;;;;;6.37;74.91;95411.91;6260184;22;19995;-86
2023/03/02 07:53:31;;;;;;;7.40;5.00;;;;;;;5.56;75.08;95289.56;6269053;22;20436;-90
2023/03/02 07:55:57;;;;;;;12.18;5.35;;;;;;;3.62;73.62;94984.41;6247130;22;20415;-89
2023/03/02 07:58:23;;;;;;;9.75;5.80;;;;;;;6.84;74.55;95499.31;6257721;22;20096;-88
2023/03/02 08:00:49;;;;;;;9.98;5.40;;;;;;;6.91;74.35;95478.03;6289819;22;20003;-87
2023/03/02 08:03:15;;;;;;;8.50;5.78;;;;;;;4.23;73.05;95053.72;6289071;22;20096;-88
2023/03/02 08:05:45;;;;;;;7.28;5.47;;;;;;;5.53;73.67;95255.03;6259615;22;20576;-89
2023/03/02 08:08:11;;;;;;;12.17;6.50;;;;;;;3.44;73.91;94921.69;6261988;22;20007;-89
2023/03/02 08:10:37;;;;;;;10.60;6.38;;;;;;;5.97;74.48;95319.94;6260958;22;20022;-88
2023/03/02 08:13:03;;;;;;;12.02;6.50;;;;;;;5.80;74.50;95343.59;6263361;22;20011;-87
2023/03/02 08:15:29;;;;;;;9.20;6.28;;;;;;;4.17;74.14;95033.66;6260312;22;20060;-85
2023/03/02 08:17:54;;;;;;;10.38;5.95;;;;;;;4.99;74.90;95223.13;6290292;22;20014;-87
2023/03/02 08:20:20;;;;;;;9.98;5.93;;;;;;;4.25;74.97;95091.03;6262573;22;20023;-88
2023/03/02 08:22:45;;;;;;;10.77;6.95;;;;;;;5.68;75.08;95342.09;6291956;22;20026;-88
2023/03/02 08:25:13;;;;;;;12.40;7.80;;;;;;;6.43;76.65;95445.19;6261837;22;20061;-86
2023/03/02 08:27:39;;;;;;;12.77;7.95;;;;;;;3.55;77.46;95001.31;6260157;22;20007;-86
2023/03/02 08:30:07;;;;;;;12.30;8.48;;;;;;;4.78;77.17;95145.78;6263987;22;20015;-88
2023/03/02 08:32:40;;;;;;;11.38;7.40;;;;;;;4.62;76.90;95115.03;6264121;22;20068;-90
2023/03/02 08:35:07;;;;;;;15.00;7.80;;;;;;;5.80;78.18;95308.56;6265936;22;20462;-87
2023/03/02 08:37:33;;;;;;;11.38;7.70;;;;;;;3.60;78.20;94936.66;6261047;22;20007;-88
2023/03/02 08:39:58;;;;;;;13.40;8.07;;;;;;;5.84;79.38;95314.97;6270431;22;20482;-86
2023/03/02 08:42:27;;;;;;;13.50;8.30;;;;;;;5.89;78.83;95332.69;6265432;22;20041;-86
2023/03/02 08:44:55;;;;;;;12.48;7.90;;;;;;;5.83;78.25;95308.13;6266152;22;20021;-87
2023/03/02 08:47:20;;;;;;;16.15;7.35;;;;;;;5.78;78.77;95308.03;6293971;22;20041;-86
2023/03/02 08:49:45;;;;;;;15.57;8.43;;;;;;;5.61;77.95;95286.19;6291146;22;20458;-89
2023/03/02 08:52:14;;;;;;;16.10;8.82;;;;;;;3.64;77.32;94934.38;6264842;22;20101;-87
2023/03/02 08:54:39;;;;;;;13.90;9.20;;;;;;;6.59;77.44;95407.50;6267054;22;20034;-85
2023/03/02 08:57:10;;;;;;;15.48;8.60;;;;;;;6.03;78.46;95302.38;6263828;22;20011;-86
2023/03/02 08:59:35;;;;;;;15.73;10.05;;;;;;;5.75;78.24;95279.56;6264135;22;20003;-85
2023/03/02 09:02:01;;;;;;;16.67;9.50;;;;;;;5.24;77.13;95193.81;6266549;22;20021;-85
2023/03/02 09:04:32;;;;;;;12.55;8.80;;;;;;;5.86;76.85;95283.16;6264522;22;20049;-85
2023/03/02 09:06:58;;;;;;;;;;;;;;;7.49;77.13;95490.66;6289500;22;20061;-86
2023/03/02 09:09:23;;;;;;;14.45;9.02;;;;;;;7.17;77.14;95474.69;6295074;22;19923;-87
2023/03/02 09:11:51;;;;;;;12.68;9.00;;;;;;;3.55;77.71;94951.50;6269211;22;20061;-87
2023/03/02 09:14:19;;;;;;;14.25;9.50;;;;;;;4.54;76.94;95063.69;6293883;22;20018;-88
2023/03/02 09:16:48;;;;;;;14.68;9.43;;;;;;;3.51;77.08;94922.31;6291218;22;20090;-89
2023/03/02 09:19:13;;;;;;;11.82;8.80;;;;;;;5.84;78.10;95280.75;6289664;22;20043;-87
2023/03/02 09:21:42;;;;;;;13.55;9.15;;;;;;;3.57;76.58;94910.91;6276847;22;20098;-86
2023/03/02 09:24:08;;;;;;;13.23;9.25;;;;;;;6.94;77.20;95401.88;6302306;22;20022;-88
2023/03/02 09:26:42;;;;;;;16.45;11.07;;;;;;;5.92;76.16;95237.47;6272288;22;20019;-88
2023/03/02 09:29:07;;;;;;;16.95;9.85;;;;;;;6.25;75.59;95274.25;6297150;22;20037;-90
2023/03/02 09:31:34;;;;;;;12.90;8.73;;;;;;;5.19;75.62;95138.53;6269100;22;20003;-85
2023/03/02 09:33:59;;;;;;;15.57;10.63;;;;;;;5.84;77.05;95246.53;6266528;22;20010;-86
2023/03/02 09:36:26;;;;;;;10.48;8.13;;;;;;;4.00;77.20;94957.53;6258216;22;20013;-85
2023/03/02 09:38:51;;;;;;;13.23;8.57;;;;;;;6.90;78.63;95434.25;6262086;22;20094;-86
2023/03/02 09:41:17;;;;;;;14.32;9.18;;;;;;;7.41;78.90;95492.91;6263800;22;20095;-84
2023/03/02 09:44:12;;;;;;;13.50;8.57;;;;;;;7.38;78.16;95494.22;6261684;22;20480;-84
2023/03/02 09:47:20;;;;;;;12.32;8.70;;;;;;;7.64;78.31;95484.75;6289889;22;20015;-86
2023/03/02 09:49:52;;;;;;;13.93;9.95;;;;;;;7.64;77.44;95482.91;6110538;23;20145;-87
2023/03/02 09:53:02;;;;;;;13.52;9.27;;;;;;;6.39;76.96;95337.91;6251843;22;20077;-84
2023/03/02 09:55:35;;;;;;;14.10;9.00;;;;;;;6.86;77.93;95390.97;6142895;23;20013;-84
2023/03/02 09:58:07;;;;;;;16.02;8.35;;;;;;;7.21;78.23;95444.16;6271867;22;20011;-85
2023/03/02 10:00:42;;;;;;;13.90;8.30;;;;;;;7.36;78.42;95444.34;6262984;22;20121;-86
2023/03/02 10:03:34;;;;;;;16.50;9.45;;;;;;;7.24;78.59;95437.59;6256549;22;20007;-85
2023/03/02 10:06:02;;;;;;;16.70;10.10;;;;;;;7.64;77.17;95482.09;6257326;22;20243;-84
2023/03/02 10:08:33;;;;;;;12.35;8.80;;;;;;;7.27;77.37;95406.22;6256283;22;20521;-83
2023/03/02 10:11:12;;;;;;;11.60;7.90;;;;;;;7.66;76.86;95457.06;6260975;22;20017;-85
2023/03/02 10:13:46;;;;;;;14.98;9.23;;;;;;;7.20;77.02;95366.06;6258380;22;20098;-84
2023/03/02 10:16:47;;;;;;;11.45;7.45;;;;;;;7.74;76.29;95475.09;6267104;22;20441;-88
2023/03/02 10:19:55;;;;;;;12.52;7.47;;;;;;;7.42;76.54;95454.94;6277619;22;20011;-85
2023/03/02 10:22:32;;;;;;;12.98;7.68;;;;;;;7.43;75.10;95427.50;6194014;22;20011;-82
2023/03/02 10:25:16;;;;;;;11.98;7.03;;;;;;;6.80;75.09;95395.38;6267385;22;20030;-84
2023/03/02 10:27:48;;;;;;;9.15;6.57;;;;;;;7.50;74.83;95483.53;6267309;22;20083;-87
2023/03/02 10:30:31;;;;;;;16.63;7.18;;;;;;;7.26;76.54;95481.13;6266700;22;20031;-84
2023/03/02 10:33:02;;;;;;;10.55;6.60;;;;;;;6.81;76.49;95436.50;6290831;22;20007;-84
2023/03/02 10:35:30;;;;;;;13.43;6.53;;;;;;;7.00;77.14;95429.13;6263904;22;20441;-83
2023/03/02 10:38:13;;;;;;;13.48;8.32;;;;;;;7.00;77.00;95408.03;6266213;22;20055;-84
2023/03/02 10:40:46;;;;;;;9.90;6.68;;;;;;;7.48;75.49;95467.94;6266780;22;20450;-83
2023/03/02 10:43:26;;;;;;;11.10;7.53;;;;;;;7.61;74.69;95470.22;6268990;22;20086;-83
2023/03/02 10:46:03;;;;;;;14.30;7.60;;;;;;;7.52;75.00;95458.50;6261462;22;20831;-82
2023/03/02 10:48:29;;;;;;;9.63;7.68;;;;;;;7.62;74.12;95458.63;6261436;22;20076;-83
2023/03/02 10:54:27;;;;;;;11.98;7.68;;;;;;;7.26;73.91;95401.19;6184948;23;20025;-85
2023/03/02 10:57:07;;;;;;;15.27;7.68;;;;;;;5.56;73.13;95165.91;6148407;23;20021;-85
2023/03/02 10:59:59;;;;;;;16.98;6.90;;;;;;;4.89;74.35;95039.00;6148035;23;20492;-85
2023/03/02 11:02:36;;;;;;;12.40;8.27;;;;;;;6.74;73.63;95319.91;6183347;23;20058;-85
2023/03/02 11:05:35;;;;;;;9.35;6.65;;;;;;;8.01;73.32;95458.47;6158578;23;20008;-85
2023/03/02 11:08:38;;;;;;;13.93;8.20;;;;;;;7.32;73.81;95352.75;6156174;23;20084;-85
2023/03/02 11:11:29;;;;;;;11.23;7.45;;;;;;;5.49;75.14;95057.44;6154728;23;20048;-85
2023/03/02 11:14:22;;;;;;;14.05;7.03;;;;;;;5.41;72.91;95061.28;6153492;23;20088;-85
2023/03/02 11:21:25;;;;;;;;;;;;;;;;;;;;;
2023/03/02 11:24:38;;;;;;;23.20;6.15;;;;;;;7.64;72.12;95453.06;6305607;22;20058;-85
2023/03/02 11:27:42;;;;;;;26.00;6.32;;;;;;;8.08;72.45;95435.31;6304643;22;20007;-85
2023/03/02 11:30:26;;;;;;;;;;;;;;;;;;;;;
2023/03/02 11:33:06;;;;;;;20.85;6.57;;;;;;;6.33;72.73;95142.13;6289097;22;20063;-86
2023/03/02 11:35:47;;;;;;;10.60;4.95;;;;;;;6.97;71.74;95237.13;6295950;22;20040;-85
2023/03/02 11:38:24;;;;;;;27.38;6.38;;;;;;;7.80;71.38;95340.50;6298652;22;20007;-87
2023/03/02 11:41:04;;;;;;;9.73;4.82;;;;;;;8.49;70.58;95423.22;6305541;22;20013;-87
2023/03/02 11:43:30;;;;;;;11.70;5.38;;;;;;;5.81;70.24;95037.28;6306944;22;20011;-84
2023/03/02 11:46:04;;;;;;;10.98;5.30;;;;;;;6.69;69.03;95134.59;6307193;22;20042;-85
2023/03/02 11:48:38;;;;;;;7.97;5.40;;;;;;;7.35;69.09;95281.78;6303518;22;20007;-83
2023/03/02 11:51:10;;;;;;;12.98;5.40;;;;;;;5.37;69.94;94941.03;6304566;22;20018;-84
2023/03/02 11:53:51;;;;;;;16.52;6.70;;;;;;;6.04;71.05;95045.97;6301032;22;20007;-84
2023/03/02 11:56:17;;;;;;;12.35;5.95;;;;;;;7.23;68.12;95251.34;6297376;22;20011;-83
2023/03/02 11:58:47;;;;;;;10.68;5.20;;;;;;;7.28;68.90;95219.72;6300007;22;20018;-85
2023/03/02 12:01:22;;;;;;;15.38;5.40;;;;;;;8.59;70.12;95433.06;6298832;22;20489;-85
2023/03/02 12:03:51;;;;;;;9.18;5.95;;;;;;;6.14;69.43;95082.94;6298547;22;20023;-85
2023/03/02 12:06:42;;;;;;;9.57;5.72;;;;;;;8.49;69.98;95418.72;6298102;22;20011;-85
2023/03/02 12:09:23;;;;;;;14.77;5.32;;;;;;;8.15;69.17;95417.41;6295722;22;20293;-84
2023/03/02 12:12:32;;;;;;;13.20;4.97;;;;;;;7.21;69.97;95256.06;6299133;22;20153;-86
2023/03/02 12:14:57;;;;;;;16.55;5.30;;;;;;;5.92;69.77;95127.72;6295179;22;20380;-83
2023/03/02 12:17:26;;;;;;;10.93;5.63;;;;;;;7.98;68.96;95420.16;6298951;22;20210;-84
2023/03/02 12:20:05;;;;;;;12.15;4.95;;;;;;;7.81;70.96;95421.31;6301653;22;20268;-84
2023/03/02 12:22:31;;;;;;;15.30;5.00;;;;;;;5.95;70.12;95135.09;6303176;22;20250;-83